createdAt,value
2019-05-13T00:00:34.262Z,6.80
2019-05-13T00:03:03.614Z,6.80
2019-05-13T00:05:33.987Z,6.80
2019-05-13T00:08:03.490Z,6.70
2019-05-13T00:10:34.816Z,6.70
2019-05-13T00:13:04.517Z,6.70
2019-05-13T00:15:34.007Z,6.60
2019-05-13T00:18:03.878Z,6.60
2019-05-13T00:20:33.907Z,6.60
2019-05-13T00:23:03.858Z,6.50
2019-05-13T00:25:34.012Z,6.60
2019-05-13T00:28:04.086Z,6.50
2019-05-13T00:30:34.295Z,6.50
2019-05-13T00:33:03.797Z,6.50
2019-05-13T00:35:33.843Z,6.50
2019-05-13T00:38:03.773Z,6.40
2019-05-13T00:40:34.039Z,6.40
2019-05-13T00:43:03.935Z,6.30
2019-05-13T00:45:33.931Z,6.30
2019-05-13T00:48:04.548Z,6.30
2019-05-13T00:50:34.017Z,6.20
2019-05-13T00:53:04.360Z,6.20
2019-05-13T00:55:34.472Z,6.10
2019-05-13T00:58:04.696Z,6.20
2019-05-13T01:00:34.195Z,6.10
2019-05-13T01:03:04.129Z,6.10
2019-05-13T01:05:34.082Z,6.00
2019-05-13T01:08:04.376Z,6.00
2019-05-13T01:10:34.612Z,6.00
2019-05-13T01:13:04.630Z,5.90
2019-05-13T01:15:34.412Z,5.90
2019-05-13T01:18:04.120Z,5.90
2019-05-13T01:20:34.390Z,5.80
2019-05-13T01:23:03.975Z,5.80
2019-05-13T01:25:34.011Z,5.80
2019-05-13T01:28:04.530Z,5.70
2019-05-13T01:30:34.594Z,5.70
2019-05-13T01:33:04.446Z,5.70
2019-05-13T01:35:34.201Z,5.60
2019-05-13T01:38:04.509Z,5.60
2019-05-13T01:40:34.758Z,5.60
2019-05-13T01:43:04.024Z,5.60
2019-05-13T01:45:33.752Z,5.60
2019-05-13T01:48:07.459Z,5.60
2019-05-13T01:50:33.799Z,5.60
2019-05-13T01:53:04.242Z,5.50
2019-05-13T01:55:34.269Z,5.50
2019-05-13T01:58:04.320Z,5.50
2019-05-13T02:00:35.285Z,5.40
2019-05-13T02:03:04.355Z,5.40
2019-05-13T02:05:33.956Z,5.40
2019-05-13T02:08:04.637Z,5.40
2019-05-13T02:10:54.299Z,5.40
2019-05-13T02:13:24.746Z,5.40
2019-05-13T02:15:55.238Z,5.40
2019-05-13T02:18:24.652Z,5.40
2019-05-13T02:20:55.353Z,5.30
2019-05-13T02:23:24.253Z,5.30
2019-05-13T02:25:54.097Z,5.40
2019-05-13T02:28:24.884Z,5.40
2019-05-13T02:30:56.105Z,5.40
2019-05-13T02:33:24.329Z,5.30
2019-05-13T02:35:53.594Z,5.30
2019-05-13T02:38:28.792Z,5.30
2019-05-13T02:40:53.764Z,5.30
2019-05-13T02:43:23.785Z,5.20
2019-05-13T02:45:53.995Z,5.20
2019-05-13T02:48:23.813Z,5.20
2019-05-13T02:50:53.972Z,5.20
2019-05-13T02:53:23.950Z,5.20
2019-05-13T02:55:53.054Z,5.10
2019-05-13T02:58:24.529Z,5.00
2019-05-13T03:00:53.184Z,5.00
2019-05-13T03:03:23.270Z,5.00
2019-05-13T03:05:53.202Z,5.00
2019-05-13T03:08:38.559Z,4.90
2019-05-13T03:10:53.492Z,4.90
2019-05-13T03:13:23.678Z,4.90
2019-05-13T03:16:02.892Z,4.90
2019-05-13T03:18:33.486Z,4.90
2019-05-13T03:21:03.430Z,4.90
2019-05-13T03:23:32.833Z,4.80
2019-05-13T03:26:02.778Z,4.80
2019-05-13T03:28:33.559Z,4.80
2019-05-13T03:31:06.134Z,4.80
2019-05-13T03:33:36.885Z,4.80
2019-05-13T03:36:06.534Z,4.80
2019-05-13T03:38:53.640Z,4.80
2019-05-13T03:41:07.033Z,4.80
2019-05-13T03:43:38.677Z,4.80
2019-05-13T03:46:08.130Z,4.70
2019-05-13T03:48:42.472Z,4.70
2019-05-13T03:51:12.945Z,4.70
2019-05-13T03:53:43.297Z,4.70
2019-05-13T03:56:12.842Z,4.70
2019-05-13T03:58:43.343Z,4.60
2019-05-13T04:01:13.032Z,4.70
2019-05-13T04:03:43.880Z,4.70
2019-05-13T04:06:13.832Z,4.60
2019-05-13T04:08:43.958Z,4.60
2019-05-13T04:11:13.061Z,4.60
2019-05-13T04:13:43.082Z,4.60
2019-05-13T04:16:12.901Z,4.60
2019-05-13T04:18:42.834Z,4.60
2019-05-13T04:21:13.102Z,4.60
2019-05-13T04:23:42.799Z,4.70
2019-05-13T04:26:14.722Z,4.70
2019-05-13T04:28:43.420Z,4.70
2019-05-13T04:31:14.441Z,4.80
2019-05-13T04:33:43.438Z,4.90
2019-05-13T04:36:13.304Z,4.90
2019-05-13T04:38:44.197Z,5.00
2019-05-13T04:41:13.283Z,5.00
2019-05-13T04:43:43.619Z,5.10
2019-05-13T04:46:14.140Z,5.10
2019-05-13T04:48:44.247Z,5.20
2019-05-13T04:51:14.023Z,5.20
2019-05-13T04:53:43.306Z,5.30
2019-05-13T04:56:13.654Z,5.40
2019-05-13T04:58:43.173Z,5.40
2019-05-13T05:01:48.780Z,5.40
2019-05-13T05:04:53.484Z,5.50
2019-05-13T05:07:42.079Z,5.60
2019-05-13T05:10:38.395Z,5.70
2019-05-13T05:13:09.071Z,5.80
2019-05-13T05:15:43.590Z,5.90
2019-05-13T05:18:32.607Z,6.00
2019-05-13T05:21:11.926Z,6.00
2019-05-13T05:24:16.902Z,6.10
2019-05-13T05:26:52.211Z,6.30
2019-05-13T05:29:42.233Z,6.40
2019-05-13T05:32:21.449Z,6.40
2019-05-13T05:35:14.464Z,6.50
2019-05-13T05:38:12.053Z,6.60
2019-05-13T05:40:42.684Z,6.80
2019-05-13T05:43:12.231Z,6.90
2019-05-13T05:45:41.366Z,7.00
2019-05-13T05:48:11.889Z,7.10
2019-05-13T05:50:42.530Z,7.10
2019-05-13T05:53:14.305Z,7.30
2019-05-13T05:55:43.225Z,7.30
2019-05-13T05:58:14.057Z,7.50
2019-05-13T06:00:43.114Z,7.50
2019-05-13T06:03:13.857Z,7.60
2019-05-13T06:05:42.272Z,7.70
2019-05-13T06:08:11.397Z,7.80
2019-05-13T06:10:47.286Z,7.90
2019-05-13T06:13:12.207Z,8.00
2019-05-13T06:15:42.106Z,8.10
2019-05-13T06:18:11.702Z,8.10
2019-05-13T06:20:41.788Z,8.20
2019-05-13T06:23:11.560Z,8.30
2019-05-13T06:25:42.767Z,8.40
2019-05-13T06:28:12.422Z,8.40
2019-05-13T06:30:41.583Z,8.50
2019-05-13T06:33:11.995Z,8.60
2019-05-13T06:35:44.250Z,8.70
2019-05-13T06:38:11.904Z,8.80
2019-05-13T06:40:42.451Z,8.80
2019-05-13T06:43:12.026Z,8.90
2019-05-13T06:45:42.040Z,9.00
2019-05-13T06:48:11.754Z,9.10
2019-05-13T06:50:41.629Z,9.10
2019-05-13T06:53:12.724Z,9.20
2019-05-13T06:55:41.795Z,9.30
2019-05-13T06:58:11.452Z,9.30
2019-05-13T07:00:42.535Z,9.40
2019-05-13T07:03:12.605Z,9.50
2019-05-13T07:05:42.334Z,9.60
2019-05-13T07:08:11.977Z,9.60
2019-05-13T07:10:41.582Z,9.70
2019-05-13T07:13:11.451Z,9.80
2019-05-13T07:15:41.707Z,9.90
2019-05-13T07:18:11.704Z,10.00
2019-05-13T07:20:42.681Z,10.00
2019-05-13T07:23:12.223Z,10.10
2019-05-13T07:25:42.159Z,10.20
2019-05-13T07:28:12.611Z,10.30
2019-05-13T07:30:45.375Z,10.40
2019-05-13T07:33:14.484Z,10.40
2019-05-13T07:35:45.459Z,10.50
2019-05-13T07:38:14.135Z,10.60
2019-05-13T07:40:43.455Z,10.60
2019-05-13T07:43:12.536Z,10.70
2019-05-13T07:45:42.365Z,10.80
2019-05-13T07:48:20.648Z,10.90
2019-05-13T07:50:53.657Z,11.00
2019-05-13T07:53:18.207Z,11.10
2019-05-13T07:55:42.214Z,11.20
2019-05-13T07:58:11.486Z,11.20
2019-05-13T08:00:41.933Z,11.30
2019-05-13T08:03:12.368Z,11.30
2019-05-13T08:05:41.835Z,11.40
2019-05-13T08:08:11.674Z,11.50
2019-05-13T08:10:41.584Z,11.50
2019-05-13T08:13:11.941Z,11.60
2019-05-13T08:15:42.281Z,11.80
2019-05-13T08:18:12.173Z,11.90
2019-05-13T08:20:42.001Z,12.00
2019-05-13T08:23:11.811Z,12.10
2019-05-13T08:25:42.337Z,12.10
2019-05-13T08:28:12.390Z,12.20
2019-05-13T08:30:42.644Z,12.20
2019-05-13T08:33:12.537Z,12.30
2019-05-13T08:35:41.978Z,12.30
2019-05-13T08:38:12.238Z,12.40
2019-05-13T08:40:42.473Z,12.40
2019-05-13T08:43:12.257Z,12.50
2019-05-13T08:45:42.362Z,12.60
2019-05-13T08:48:12.838Z,12.60
2019-05-13T08:50:42.207Z,12.70
2019-05-13T08:53:12.490Z,12.70
2019-05-13T08:55:42.689Z,12.80
2019-05-13T08:58:12.430Z,12.90
2019-05-13T09:00:47.707Z,12.80
2019-05-13T09:03:17.105Z,12.90
2019-05-13T09:05:46.165Z,12.90
2019-05-13T09:08:16.556Z,12.90
2019-05-13T09:10:48.787Z,13.10
2019-05-13T09:13:17.779Z,13.10
2019-05-13T09:15:46.480Z,13.10
2019-05-13T09:18:15.109Z,13.10
2019-05-13T09:20:43.897Z,13.20
2019-05-13T09:23:12.460Z,13.30
2019-05-13T09:25:41.669Z,13.30
2019-05-13T09:28:12.512Z,13.40
2019-05-13T09:30:42.428Z,13.50
2019-05-13T09:33:11.574Z,13.50
2019-05-13T09:35:42.219Z,13.60
2019-05-13T09:38:12.700Z,13.70
2019-05-13T09:40:42.308Z,13.80
2019-05-13T09:43:11.687Z,13.90
2019-05-13T09:45:41.733Z,14.00
2019-05-13T09:48:12.966Z,14.10
2019-05-13T09:50:42.577Z,14.20
2019-05-13T09:53:11.679Z,14.40
2019-05-13T09:55:41.479Z,14.40
2019-05-13T09:58:11.875Z,14.50
2019-05-13T10:00:42.041Z,14.60
2019-05-13T10:05:41.139Z,14.70
2019-05-13T10:08:12.265Z,14.70
2019-05-13T10:10:42.123Z,14.80
2019-05-13T10:13:13.089Z,14.90
2019-05-13T10:15:42.060Z,15.00
2019-05-13T10:18:12.529Z,15.00
2019-05-13T10:20:52.277Z,15.00
2019-05-13T10:23:22.018Z,15.10
2019-05-13T10:25:52.888Z,15.20
2019-05-13T10:28:22.180Z,15.20
2019-05-13T10:30:53.198Z,15.20
2019-05-13T10:33:22.127Z,15.30
2019-05-13T10:35:52.680Z,15.40
2019-05-13T10:38:27.374Z,15.50
2019-05-13T10:40:52.885Z,15.50
2019-05-13T10:43:30.924Z,15.60
2019-05-13T10:45:52.617Z,15.70
2019-05-13T10:48:22.166Z,15.80
2019-05-13T10:50:52.970Z,15.90
2019-05-13T10:53:22.148Z,15.90
2019-05-13T10:55:52.369Z,16.10
2019-05-13T10:58:23.362Z,16.20
2019-05-13T11:00:53.954Z,16.40
2019-05-13T11:03:23.549Z,16.50
2019-05-13T11:05:55.052Z,16.60
2019-05-13T11:08:23.742Z,16.60
2019-05-13T11:10:53.014Z,16.60
2019-05-13T11:13:23.340Z,16.80
2019-05-13T11:15:57.849Z,16.90
2019-05-13T11:18:24.375Z,17.00
2019-05-13T11:20:52.758Z,17.10
2019-05-13T11:23:23.326Z,17.20
2019-05-13T11:25:52.543Z,17.30
2019-05-13T11:28:21.204Z,17.50
2019-05-13T11:30:52.069Z,17.50
2019-05-13T11:33:22.260Z,17.50
2019-05-13T11:35:52.347Z,17.60
2019-05-13T11:38:22.090Z,17.70
2019-05-13T11:40:52.316Z,17.70
2019-05-13T11:43:21.606Z,17.80
2019-05-13T11:45:51.936Z,17.80
2019-05-13T11:48:23.558Z,17.80
2019-05-13T11:50:53.899Z,18.00
2019-05-13T11:53:37.611Z,18.00
2019-05-13T11:55:52.404Z,18.00
2019-05-13T11:58:21.595Z,17.90
2019-05-13T12:00:53.536Z,18.00
2019-05-13T12:03:23.033Z,18.20
2019-05-13T12:05:53.688Z,18.10
2019-05-13T12:08:23.225Z,18.10
2019-05-13T12:10:52.262Z,18.20
2019-05-13T12:13:24.043Z,18.50
2019-05-13T12:15:54.331Z,18.60
2019-05-13T12:18:23.934Z,18.60
2019-05-13T12:20:53.913Z,18.70
2019-05-13T12:23:23.173Z,18.60
2019-05-13T12:25:52.998Z,18.40
2019-05-13T12:28:21.901Z,18.40
2019-05-13T12:30:52.986Z,18.50
2019-05-13T12:33:22.647Z,18.50
2019-05-13T12:35:53.051Z,18.40
2019-05-13T12:38:22.814Z,18.50
2019-05-13T12:40:52.763Z,18.50
2019-05-13T12:43:24.108Z,18.60
2019-05-13T12:45:53.286Z,18.70
2019-05-13T12:48:23.117Z,18.80
2019-05-13T12:50:54.085Z,18.90
2019-05-13T12:53:22.694Z,19.00
2019-05-13T12:55:53.799Z,19.00
2019-05-13T12:58:23.766Z,18.90
2019-05-13T13:00:53.263Z,19.10
2019-05-13T13:03:23.318Z,19.00
2019-05-13T13:05:52.256Z,19.20
2019-05-13T13:08:38.217Z,19.30
2019-05-13T13:10:53.383Z,19.60
2019-05-13T13:13:26.798Z,19.70
2019-05-13T13:15:52.908Z,20.00
2019-05-13T13:18:22.572Z,20.10
2019-05-13T13:20:58.146Z,20.20
2019-05-13T13:23:23.555Z,20.50
2019-05-13T13:25:54.145Z,20.70
2019-05-13T13:28:23.810Z,20.70
2019-05-13T13:30:53.102Z,20.90
2019-05-13T13:33:22.041Z,21.30
2019-05-13T13:35:59.576Z,21.60
2019-05-13T13:38:25.324Z,22.10
2019-05-13T13:40:53.842Z,22.50
2019-05-13T13:43:24.878Z,23.00
2019-05-13T13:48:25.496Z,23.80
2019-05-13T13:50:55.895Z,25.60
2019-05-13T13:53:25.897Z,27.00
2019-05-13T13:55:55.899Z,28.10
2019-05-13T13:58:25.515Z,29.10
2019-05-13T14:01:05.512Z,30.20
2019-05-13T14:03:24.362Z,31.50
2019-05-13T14:05:54.075Z,32.60
2019-05-13T14:06:25.463Z,14.70
2019-05-13T14:06:58.778Z,23.40
2019-05-13T14:08:23.051Z,33.10
2019-05-13T14:10:51.682Z,34.00
2019-05-13T14:13:21.828Z,34.40
2019-05-13T14:15:52.747Z,34.50
2019-05-13T14:18:26.285Z,34.60
2019-05-13T14:20:53.003Z,34.70
2019-05-13T14:23:21.562Z,34.90
2019-05-13T14:25:52.918Z,34.50
2019-05-13T14:28:22.992Z,35.00
2019-05-13T14:30:51.579Z,35.00
2019-05-13T14:33:20.434Z,34.80
2019-05-13T14:35:49.060Z,34.90
2019-05-13T14:38:17.745Z,35.30
2019-05-13T14:40:46.765Z,35.10
2019-05-13T14:43:15.679Z,35.50
2019-05-13T14:45:44.257Z,35.10
2019-05-13T14:48:12.901Z,35.30
2019-05-13T14:50:41.813Z,35.60
2019-05-13T14:53:11.029Z,36.00
2019-05-13T14:55:41.943Z,35.90
2019-05-13T14:58:14.842Z,35.80
2019-05-13T15:00:43.560Z,35.60
2019-05-13T15:03:13.135Z,35.40
2019-05-13T15:05:42.953Z,35.90
2019-05-13T15:08:11.786Z,35.90
2019-05-13T15:10:41.916Z,35.70
2019-05-13T15:13:10.649Z,36.30
2019-05-13T15:15:39.429Z,36.70
2019-05-13T15:18:08.353Z,36.60
2019-05-13T15:20:36.942Z,36.50
2019-05-13T15:23:05.665Z,36.00
2019-05-13T15:25:34.869Z,35.30
2019-05-13T15:28:03.518Z,35.70
2019-05-13T15:30:32.078Z,35.40
2019-05-13T15:33:01.808Z,35.90
2019-05-13T15:35:32.141Z,35.30
2019-05-13T15:38:01.347Z,35.90
2019-05-13T15:40:31.237Z,36.00
2019-05-13T15:43:02.209Z,36.30
2019-05-13T15:45:31.864Z,36.10
2019-05-13T15:48:02.320Z,35.60
2019-05-13T15:50:31.875Z,35.10
2019-05-13T15:53:02.811Z,35.70
2019-05-13T15:55:30.800Z,35.50
2019-05-13T15:58:01.820Z,35.00
2019-05-13T16:00:29.942Z,34.90
2019-05-13T16:02:58.534Z,35.00
2019-05-13T16:05:27.104Z,34.70
2019-05-13T16:07:56.055Z,34.40
2019-05-13T16:10:24.607Z,34.10
2019-05-13T16:12:53.474Z,34.00
2019-05-13T16:15:22.114Z,34.30
2019-05-13T16:17:52.156Z,34.40
2019-05-13T16:20:21.470Z,34.50
2019-05-13T16:22:52.532Z,34.20
2019-05-13T16:25:20.355Z,34.10
2019-05-13T16:27:48.920Z,34.20
2019-05-13T16:30:17.738Z,34.40
2019-05-13T16:32:48.081Z,34.70
2019-05-13T16:35:16.675Z,34.10
2019-05-13T16:37:45.369Z,34.20
2019-05-13T16:40:14.671Z,33.70
2019-05-13T16:42:43.271Z,33.60
2019-05-13T16:45:12.755Z,33.50
2019-05-13T16:47:55.825Z,33.50
2019-05-13T16:50:12.064Z,33.20
2019-05-13T16:52:41.832Z,33.60
2019-05-13T16:55:12.837Z,33.50
2019-05-13T16:57:42.381Z,32.90
2019-05-13T17:00:11.837Z,32.90
2019-05-13T17:02:42.207Z,32.80
2019-05-13T17:05:12.526Z,32.30
2019-05-13T17:07:42.184Z,31.80
2019-05-13T17:10:12.543Z,31.80
2019-05-13T17:12:42.953Z,31.70
2019-05-13T17:15:12.015Z,31.50
2019-05-13T17:17:41.056Z,30.80
2019-05-13T17:20:12.528Z,30.20
2019-05-13T17:22:42.347Z,29.30
2019-05-13T17:25:12.580Z,28.40
2019-05-13T17:27:41.457Z,27.40
2019-05-13T17:30:11.505Z,26.30
2019-05-13T17:32:40.404Z,25.40
2019-05-13T17:35:11.599Z,24.60
2019-05-13T17:37:42.001Z,23.90
2019-05-13T17:40:11.783Z,23.40
2019-05-13T17:42:41.575Z,22.40
2019-05-13T17:45:11.494Z,21.70
2019-05-13T17:47:41.879Z,21.20
2019-05-13T17:50:11.796Z,20.70
2019-05-13T17:52:40.631Z,20.20
2019-05-13T17:55:11.566Z,19.60
2019-05-13T17:57:41.433Z,19.20
2019-05-13T18:00:10.962Z,18.70
2019-05-13T18:02:41.844Z,18.30
2019-05-13T18:05:12.039Z,17.70
2019-05-13T18:07:41.956Z,17.40
2019-05-13T18:10:14.259Z,17.00
2019-05-13T18:12:41.829Z,16.70
2019-05-13T18:15:11.621Z,16.40
2019-05-13T18:17:41.732Z,16.10
2019-05-13T18:20:11.221Z,15.90
2019-05-13T18:22:41.980Z,15.70
2019-05-13T18:25:12.005Z,15.40
2019-05-13T18:27:41.567Z,15.30
2019-05-13T18:30:11.663Z,15.10
2019-05-13T18:32:40.340Z,14.90
2019-05-13T18:35:12.069Z,14.80
2019-05-13T18:37:41.901Z,14.60
2019-05-13T18:40:11.692Z,14.60
2019-05-13T18:42:42.140Z,14.40
2019-05-13T18:45:13.436Z,14.20
2019-05-13T18:47:41.788Z,14.00
2019-05-13T18:50:11.582Z,13.90
2019-05-13T18:52:42.013Z,13.80
2019-05-13T18:55:12.451Z,13.80
2019-05-13T18:57:41.530Z,13.60
2019-05-13T19:00:11.130Z,13.50
2019-05-13T19:02:41.493Z,13.40
2019-05-13T19:05:11.917Z,13.30
2019-05-13T19:07:41.963Z,13.20
2019-05-13T19:10:11.529Z,13.10
2019-05-13T19:12:42.142Z,13.00
2019-05-13T19:15:12.130Z,12.80
2019-05-13T19:17:41.511Z,12.70
2019-05-13T19:20:11.615Z,12.60
2019-05-13T19:22:41.313Z,12.60
2019-05-13T19:25:11.931Z,12.50
2019-05-13T19:27:41.289Z,12.40
2019-05-13T19:30:12.223Z,12.30
2019-05-13T19:32:41.720Z,12.20
2019-05-13T19:35:11.863Z,12.10
2019-05-13T19:37:42.516Z,12.10
2019-05-13T19:40:13.001Z,11.90
2019-05-13T19:42:41.940Z,11.90
2019-05-13T19:45:12.303Z,11.80
2019-05-13T19:47:41.801Z,11.70
2019-05-13T19:50:10.922Z,11.60
2019-05-13T19:52:41.494Z,11.60
2019-05-13T19:55:11.868Z,11.50
2019-05-13T19:57:42.313Z,11.40
2019-05-13T20:00:14.047Z,11.30
2019-05-13T20:02:42.168Z,11.30
2019-05-13T20:05:12.043Z,11.20
2019-05-13T20:07:41.978Z,11.20
2019-05-13T20:10:11.857Z,11.10
2019-05-13T20:12:41.973Z,11.00
2019-05-13T20:15:11.834Z,11.00
2019-05-13T20:17:41.632Z,10.90
2019-05-13T20:20:12.443Z,10.90
2019-05-13T20:22:42.183Z,10.90
2019-05-13T20:25:13.099Z,10.80
2019-05-13T20:27:42.126Z,10.80
2019-05-13T20:30:11.548Z,10.70
2019-05-13T20:32:40.138Z,10.70
2019-05-13T20:35:11.457Z,10.60
2019-05-13T20:37:40.092Z,10.60
2019-05-13T20:40:11.388Z,10.60
2019-05-13T20:42:41.426Z,10.50
2019-05-13T20:45:11.482Z,10.50
2019-05-13T20:47:42.029Z,10.50
2019-05-13T20:50:12.467Z,10.50
2019-05-13T20:52:42.117Z,10.40
2019-05-13T20:55:11.597Z,10.40
2019-05-13T20:57:41.707Z,10.40
2019-05-13T21:00:11.997Z,10.30
2019-05-13T21:02:41.776Z,10.30
2019-05-13T21:05:12.132Z,10.30
2019-05-13T21:07:41.796Z,10.30
2019-05-13T21:10:12.138Z,10.20
2019-05-13T21:12:41.936Z,10.20
2019-05-13T21:15:12.931Z,10.20
2019-05-13T21:17:41.691Z,10.20
2019-05-13T21:20:19.707Z,10.10
2019-05-13T21:22:42.398Z,10.10
2019-05-13T21:25:11.507Z,10.10
2019-05-13T21:27:41.989Z,10.00
2019-05-13T21:30:11.932Z,10.00
2019-05-13T21:32:40.676Z,10.00
2019-05-13T21:35:11.626Z,9.90
2019-05-13T21:37:40.030Z,9.90
2019-05-13T21:40:11.211Z,9.80
2019-05-13T21:42:41.889Z,9.80
2019-05-13T21:45:11.249Z,9.80
2019-05-13T21:47:40.110Z,9.80
2019-05-13T21:50:11.488Z,9.80
2019-05-13T21:52:41.730Z,9.70
2019-05-13T21:55:11.504Z,9.70
2019-05-13T21:57:41.469Z,9.70
2019-05-13T22:00:13.155Z,9.60
2019-05-13T22:02:41.726Z,9.60
2019-05-13T22:05:11.738Z,9.60
2019-05-13T22:07:42.156Z,9.50
2019-05-13T22:10:11.278Z,9.50
2019-05-13T22:12:41.508Z,9.50
2019-05-13T22:15:10.448Z,9.50
2019-05-13T22:17:39.080Z,9.40
2019-05-13T22:20:08.635Z,9.50
2019-05-13T22:22:37.358Z,9.40
2019-05-13T22:25:07.577Z,9.40
2019-05-13T22:27:36.213Z,9.40
2019-05-13T22:30:06.936Z,9.40
2019-05-13T22:32:35.537Z,9.40
2019-05-13T22:35:05.064Z,9.30
2019-05-13T22:37:33.710Z,9.30
2019-05-13T22:40:04.107Z,9.30
2019-05-13T22:42:32.587Z,9.30
2019-05-13T22:45:02.843Z,9.20
2019-05-13T22:47:31.681Z,9.20
2019-05-13T22:50:02.008Z,9.20
2019-05-13T22:52:31.241Z,9.20
2019-05-13T22:55:02.393Z,9.10
2019-05-13T22:57:31.303Z,9.10
2019-05-13T23:00:00.173Z,9.10
2019-05-13T23:02:28.971Z,9.00
2019-05-13T23:04:57.726Z,9.00
2019-05-13T23:07:26.294Z,9.00
2019-05-13T23:09:54.863Z,9.00
2019-05-13T23:12:23.544Z,9.00
2019-05-13T23:14:52.234Z,8.90
2019-05-13T23:17:21.558Z,8.90
2019-05-13T23:19:52.241Z,9.00
2019-05-13T23:22:20.550Z,9.00
2019-05-13T23:24:49.406Z,8.90
2019-05-13T23:27:17.974Z,8.90
2019-05-13T23:29:46.582Z,8.90
2019-05-13T23:32:15.182Z,8.80
2019-05-13T23:34:43.766Z,8.80
2019-05-13T23:37:12.480Z,8.80
2019-05-13T23:39:41.810Z,8.80
2019-05-13T23:42:12.183Z,8.80
2019-05-13T23:44:41.649Z,8.80
2019-05-13T23:47:11.486Z,8.70
2019-05-13T23:49:42.216Z,8.70
2019-05-13T23:52:11.797Z,8.70
2019-05-13T23:54:42.529Z,8.70
2019-05-13T23:57:11.693Z,8.70
2019-05-13T23:59:42.042Z,8.60
